Pagina principale
METAR-TAF:

METAR-TAF

Aeroporti :

Monte Cimone, Italia

latitudine: 44-12N, longitudine: 010-42E, altezza: 2165 m

Osservazione

Il bollettino è stato emesso 1 ora e 18 minuti fa, alle 23:55 UTC
Vento 16 kt da ovest/sud-ovest con raffiche fino a 45 kt
Temperature 2°C
Umidità 87%
Pressione 1001 hPa
Visibilità minore di 50 m
nebbia

METAR: LIVC 162355Z 24016G45KT 0000 FG VV/// 02/00 Q1001 RMK MON INVIS VAL INVIS VIS MIN 0000

Ora: 02:13 (01:13 UTC)


TAF: mancante

Osservazioni e previsioni meteorologiche di più di 4000 aeroporti (messaggi METAR e TAF).

Le stazioni disponibili sono rappresentate dai dischi gialli e rossi sulla carta.

Puntare il mouse per vedere il nome della stazione.

Clicca sopra per visualizzare le osservazioni e previsioni meteorologiche.

Per cambiare la mappa : fare clic sui pulsanti verdi con una croce nera per ingrandire, il pulsante verde con un trattino per diminuire, o sulla freccia verde per le mappe adiacenti.


METAR-TAF: